Date,TemperatureHighF,TemperatureAvgF,TemperatureLowF,DewpointHighF,DewpointAvgF,DewpointLowF,HumidityHigh,HumidityAvg,HumidityLow,PressureMaxIn,PressureMinIn,WindSpeedMaxMPH,WindSpeedAvgMPH,GustSpeedMaxMPH,PrecipitationSumIn
2012-1-1,21,14,6,-100,-100,-100,0,0,100,0.00,40.00,0,-999,0,0.01
2012-1-2,36,28,21,-100,-100,-100,0,0,100,0.00,40.00,0,-999,0,0.01
2012-1-3,29,25,20,-100,-100,-100,0,0,100,0.00,40.00,0,-999,0,0.00
2012-1-4,35,29,19,-100,-100,-100,0,0,100,0.00,40.00,0,-999,0,0.00
2012-1-5,35,29,25,-100,-100,-100,0,0,100,0.00,40.00,0,-999,0,0.00
2012-1-6,25,18,10,-100,-100,-100,0,0,100,0.00,40.00,0,-999,0,0.00
2012-1-7,22,12,4,-100,-100,-100,0,0,100,0.00,40.00,0,-999,0,0.00
2012-1-8,29,18,9,-100,-100,-100,0,0,100,0.00,40.00,0,-999,0,0.01
2012-1-9,35,27,18,-100,-100,-100,0,0,100,0.00,40.00,0,-999,0,0.01
2012-1-10,28,22,9,-100,-100,-100,0,0,100,0.00,40.00,0,-999,0,0.00
2012-1-11,9,2,-5,-100,-100,-100,0,0,100,0.00,40.00,0,-999,0,0.00
2012-1-12,18,11,1,-100,-100,-100,0,0,100,0.00,40.00,0,-999,0,0.01
2012-1-13,22,17,13,-100,-100,-100,0,0,100,0.00,40.00,0,-999,0,0.01
2012-1-14,30,21,13,-100,-100,-100,0,0,100,0.00,40.00,0,-999,0,0.01
2012-1-15,29,25,16,-100,-100,-100,0,0,100,0.00,40.00,0,-999,0,0.01
2012-1-16,8,2,-8,-100,-100,-100,0,0,100,0.00,40.00,0,-999,0,0.00
2012-1-17,4,0,-6,-100,-100,-100,0,0,100,0.00,40.00,0,-999,0,0.01
2012-1-18,20,12,5,-100,-100,-100,0,0,100,0.00,40.00,0,-999,0,0.03
2012-1-19,26,23,21,-100,-100,-100,0,0,100,0.00,40.00,0,-999,0,0.07
2012-1-20,27,24,23,-100,-100,-100,0,0,100,0.00,40.00,0,-999,0,0.04
2012-1-21,31,28,24,-100,-100,-100,0,0,100,0.00,40.00,0,-999,0,0.01
2012-1-22,22,14,10,-100,-100,-100,0,0,100,0.00,40.00,0,-999,0,0.01
2012-1-23,23,17,12,-100,-100,-100,0,0,100,0.00,40.00,0,-999,0,0.01
2012-1-24,17,8,-8,-100,-100,-100,0,0,100,0.00,40.00,0,-999,0,0.01
2012-1-25,27,20,13,-100,-100,-100,0,0,100,0.00,40.00,0,-999,0,0.02
2012-1-26,25,21,16,-100,-100,-100,0,0,100,0.00,40.00,0,-999,0,0.02
2012-1-27,16,8,4,-100,-100,-100,0,0,100,0.00,40.00,0,-999,0,0.01
2012-1-28,15,10,5,-100,-100,-100,0,0,100,0.00,40.00,0,-999,0,0.01
2012-1-29,27,21,13,-100,-100,-100,0,0,100,0.00,40.00,0,-999,0,0.01
2012-1-30,24,20,18,-100,-100,-100,0,0,100,0.00,40.00,0,-999,0,0.01
2012-1-31,23,18,16,-100,-100,-100,0,0,100,0.00,40.00,0,-999,0,0.01
2012-2-1,26,18,10,-100,-100,-100,0,0,100,0.00,40.00,0,-999,0,0.00
2012-2-2,24,17,8,-100,-100,-100,0,0,100,0.00,40.00,0,-999,0,0.00
2012-2-3,23,10,1,-100,-100,-100,0,0,100,0.00,40.00,0,-999,0,0.00
2012-2-4,33,12,1,-100,-100,-100,0,0,100,0.00,40.00,0,-999,0,0.00
2012-2-5,34,14,2,-100,-100,-100,0,0,100,0.00,40.00,0,-999,0,0.00
2012-2-6,26,14,6,-100,-100,-100,0,0,100,0.00,40.00,0,-999,0,0.01
2012-2-7,22,14,10,-100,-100,-100,0,0,100,0.00,40.00,0,-999,0,0.01
2012-2-8,24,16,11,-100,-100,-100,0,0,100,0.00,40.00,0,-999,0,0.00
2012-2-9,27,21,15,-100,-100,-100,0,0,100,0.00,40.00,0,-999,0,0.01
2012-2-10,26,19,13,-100,-100,-100,0,0,100,0.00,40.00,0,-999,0,0.00
2012-2-11,31,21,13,-100,-100,-100,0,0,100,0.00,40.00,0,-999,0,0.01
2012-2-12,34,22,13,-100,-100,-100,0,0,100,0.00,40.00,0,-999,0,0.00
2012-2-13,27,20,15,-100,-100,-100,0,0,100,0.00,40.00,0,-999,0,0.00
2012-2-14,24,18,10,-100,-100,-100,0,0,100,0.00,40.00,0,-999,0,0.00
2012-2-15,20,11,3,-100,-100,-100,0,0,100,0.00,40.00,0,-999,0,0.00
2012-2-16,22,13,3,-100,-100,-100,0,0,100,0.00,40.00,0,-999,0,0.01
2012-2-17,23,17,12,-100,-100,-100,0,0,100,0.00,40.00,0,-999,0,0.01
2012-2-18,29,19,11,-100,-100,-100,0,0,100,0.00,40.00,0,-999,0,0.00
2012-2-19,20,13,4,-100,-100,-100,0,0,100,0.00,40.00,0,-999,0,0.00
2012-2-20,17,11,3,-100,-100,-100,0,0,100,0.00,40.00,0,-999,0,0.00
2012-2-21,25,19,13,-100,-100,-100,0,0,100,0.00,40.00,0,-999,0,0.02
2012-2-22,29,25,13,-100,-100,-100,0,0,100,0.00,40.00,0,-999,0,0.08
2012-2-23,17,12,7,-100,-100,-100,0,0,100,0.00,40.00,0,-999,0,0.02
2012-2-24,21,13,7,-100,-100,-100,0,0,100,0.00,40.00,0,-999,0,0.00
2012-2-25,25,18,10,-100,-100,-100,0,0,100,0.00,40.00,0,-999,0,0.01
2012-2-26,16,8,-1,-100,-100,-100,0,0,100,0.00,40.00,0,-999,0,0.00
2012-2-27,26,10,-6,-100,-100,-100,0,0,100,0.00,40.00,0,-999,0,0.01
2012-2-28,25,15,2,-100,-100,-100,0,0,100,0.00,40.00,0,-999,0,0.01
2012-2-29,25,15,9,-100,-100,-100,0,0,100,0.00,40.00,0,-999,0,0.01
2012-3-1,16,8,1,-100,-100,-100,0,0,100,0.00,40.00,0,-999,0,0.01
2012-3-2,15,7,-3,-100,-100,-100,0,0,100,0.00,40.00,0,-999,0,0.01
2012-3-3,24,17,10,-100,-100,-100,0,0,100,0.00,40.00,0,-999,0,0.03
2012-3-4,33,26,23,-100,-100,-100,0,0,100,0.00,40.00,0,-999,0,0.03
2012-3-5,33,28,23,-100,-100,-100,0,0,100,0.00,40.00,0,-999,0,0.00
2012-3-6,30,23,4,-100,-100,-100,0,0,100,0.00,40.00,0,-999,0,0.01
2012-3-7,21,11,-7,-100,-100,-100,0,0,100,0.00,40.00,0,-999,0,0.00
2012-3-8,34,21,5,-100,-100,-100,0,0,100,0.00,40.00,0,-999,0,0.01
2012-3-9,40,30,18,-100,-100,-100,0,0,100,0.00,40.00,0,-999,0,0.01
2012-3-10,43,32,21,-100,-100,-100,0,0,100,0.00,40.00,0,-999,0,0.01
2012-3-11,40,30,20,-100,-100,-100,0,0,100,0.00,40.00,0,-999,0,0.00
2012-3-12,33,28,23,-100,-100,-100,0,0,100,0.00,40.00,0,-999,0,0.01
2012-3-13,38,32,28,-100,-100,-100,0,0,100,0.00,40.00,0,-999,0,0.00
2012-3-14,34,31,29,-100,-100,-100,0,0,100,0.00,40.00,0,-999,0,0.01
2012-3-15,39,34,30,-100,-100,-100,0,0,100,0.00,40.00,0,-999,0,0.01
2012-3-16,39,36,31,-100,-100,-100,0,0,100,0.00,40.00,0,-999,0,0.00
2012-3-17,46,37,31,-100,-100,-100,0,0,100,0.00,40.00,0,-999,0,0.00
2012-3-18,41,33,28,-100,-100,-100,0,0,100,0.00,40.00,0,-999,0,0.00
2012-3-19,27,20,14,-100,-100,-100,0,0,100,0.00,40.00,0,-999,0,0.02
2012-3-20,24,17,4,-100,-100,-100,0,0,100,0.00,40.00,0,-999,0,0.00
2012-3-21,35,28,20,-100,-100,-100,0,0,100,0.00,40.00,0,-999,0,0.01
2012-3-22,44,33,22,-100,-100,-100,0,0,100,0.00,40.00,0,-999,0,0.00
2012-3-23,49,40,22,-100,-100,-100,0,0,100,0.00,40.00,0,-999,0,0.00
2012-3-24,48,36,21,-100,-100,-100,0,0,100,0.00,40.00,0,-999,0,0.00
2012-3-25,51,39,27,-100,-100,-100,0,0,100,0.00,40.00,0,-999,0,0.00
2012-3-26,49,34,25,-100,-100,-100,0,0,100,0.00,40.00,0,-999,0,0.00
2012-3-27,36,28,22,-100,-100,-100,0,0,100,0.00,40.00,0,-999,0,0.01
2012-3-28,41,32,24,-100,-100,-100,0,0,100,0.00,40.00,0,-999,0,0.01
2012-3-29,34,27,20,-100,-100,-100,0,0,100,0.00,40.00,0,-999,0,0.01
2012-3-30,40,33,28,-100,-100,-100,0,0,100,0.00,40.00,0,-999,0,0.02
2012-3-31,47,40,34,-100,-100,-100,0,0,100,0.00,40.00,0,-999,0,0.01
2012-4-1,41,34,24,-100,-100,-100,0,0,100,0.00,40.00,0,-999,0,0.00
2012-4-2,35,25,12,-100,-100,-100,0,0,100,0.00,40.00,0,-999,0,0.01
2012-4-3,46,26,9,-100,-100,-100,0,0,100,0.00,40.00,0,-999,0,0.01
2012-4-4,48,37,28,-100,-100,-100,0,0,100,0.00,40.00,0,-999,0,0.01
2012-4-5,42,32,26,-100,-100,-100,0,0,100,0.00,40.00,0,-999,0,0.00
2012-4-6,34,24,17,-100,-100,-100,0,0,100,0.00,40.00,0,-999,0,0.02
2012-4-7,26,20,13,-100,-100,-100,0,0,100,0.00,40.00,0,-999,0,0.03
2012-4-8,42,30,21,-100,-100,-100,0,0,100,0.00,40.00,0,-999,0,0.01
2012-4-9,51,33,16,-100,-100,-100,0,0,100,0.00,40.00,0,-999,0,0.00
2012-4-10,56,38,22,-100,-100,-100,0,0,100,0.00,40.00,0,-999,0,0.01
2012-4-11,57,44,29,-100,-100,-100,0,0,100,0.00,40.00,0,-999,0,0.00
2012-4-12,42,32,26,-100,-100,-100,0,0,100,0.00,40.00,0,-999,0,0.02
2012-4-13,36,29,23,-100,-100,-100,0,0,100,0.00,40.00,0,-999,0,0.01
2012-4-14,37,26,12,-100,-100,-100,0,0,100,0.00,40.00,0,-999,0,0.00
2012-4-15,37,25,13,-100,-100,-100,0,0,100,0.00,40.00,0,-999,0,0.00
2012-4-16,39,28,17,-100,-100,-100,0,0,100,0.00,40.00,0,-999,0,0.01
2012-4-17,35,31,28,-100,-100,-100,0,0,100,0.00,40.00,0,-999,0,0.01
2012-4-18,37,31,28,-100,-100,-100,0,0,100,0.00,40.00,0,-999,0,0.02
2012-4-19,38,30,21,-100,-100,-100,0,0,100,0.00,40.00,0,-999,0,0.01
2012-4-20,47,39,29,-100,-100,-100,0,0,100,0.00,40.00,0,-999,0,0.00
2012-4-21,53,44,37,-100,-100,-100,0,0,100,0.00,40.00,0,-999,0,0.00
2012-4-22,60,44,28,-100,-100,-100,0,0,100,0.00,40.00,0,-999,0,0.00
2012-4-23,64,47,33,-100,-100,-100,0,0,100,0.00,40.00,0,-999,0,0.00
2012-4-24,59,43,34,-100,-100,-100,0,0,100,0.00,40.00,0,-999,0,0.01
2012-4-25,56,42,33,-100,-100,-100,0,0,100,0.00,40.00,0,-999,0,0.01
2012-4-26,54,44,34,-100,-100,-100,0,0,100,0.00,40.00,0,-999,0,0.00
2012-4-27,36,29,22,-100,-100,-100,0,0,100,0.00,40.00,0,-999,0,0.00
2012-4-28,29,24,20,-100,-100,-100,0,0,100,0.00,40.00,0,-999,0,0.02
2012-4-29,34,28,23,-100,-100,-100,0,0,100,0.00,40.00,0,-999,0,0.01
2012-4-30,40,33,27,-100,-100,-100,0,0,100,0.00,40.00,0,-999,0,0.02
2012-5-1,34,30,23,-100,-100,-100,0,0,100,0.00,40.00,0,-999,0,0.03
2012-5-2,39,27,15,-100,-100,-100,0,0,100,0.00,40.00,0,-999,0,0.01
2012-5-3,48,36,25,-100,-100,-100,0,0,100,0.00,40.00,0,-999,0,0.01
2012-5-4,48,38,31,-100,-100,-100,0,0,100,0.00,40.00,0,-999,0,0.01
2012-5-5,38,29,21,-100,-100,-100,0,0,100,0.00,40.00,0,-999,0,0.02
2012-5-6,39,27,17,-100,-100,-100,0,0,100,0.00,40.00,0,-999,0,0.01
2012-5-7,47,31,10,-100,-100,-100,0,0,100,0.00,40.00,0,-999,0,0.00
2012-5-8,56,38,19,-100,-100,-100,0,0,100,0.00,40.00,0,-999,0,0.01
2012-5-9,57,46,36,-100,-100,-100,0,0,100,0.00,40.00,0,-999,0,0.01
2012-5-10,50,39,30,-100,-100,-100,0,0,100,0.00,40.00,0,-999,0,0.00
2012-5-11,44,32,23,-100,-100,-100,0,0,100,0.00,40.00,0,-999,0,0.01
2012-5-12,48,34,20,-100,-100,-100,0,0,100,0.00,40.00,0,-999,0,0.00
2012-5-13,56,42,23,-100,-100,-100,0,0,100,0.00,40.00,0,-999,0,0.00
2012-5-14,60,50,32,-100,-100,-100,0,0,100,0.00,40.00,0,-999,0,0.01
2012-5-15,64,50,31,-100,-100,-100,0,0,100,0.00,40.00,0,-999,0,0.00
2012-5-16,60,50,38,-100,-100,-100,0,0,100,0.00,40.00,0,-999,0,0.00
2012-5-17,57,44,35,-100,-100,-100,0,0,100,0.00,40.00,0,-999,0,0.00
2012-5-18,43,36,31,-100,-100,-100,0,0,100,0.00,40.00,0,-999,0,0.01
2012-5-19,45,34,25,-100,-100,-100,0,0,100,0.00,40.00,0,-999,0,0.02
2012-5-20,52,41,27,-100,-100,-100,0,0,100,0.00,40.00,0,-999,0,0.00
2012-5-21,60,48,35,-100,-100,-100,0,0,100,0.00,40.00,0,-999,0,0.00
2012-5-22,48,40,32,-100,-100,-100,0,0,100,0.00,40.00,0,-999,0,0.02
2012-5-23,41,32,25,-100,-100,-100,0,0,100,0.00,40.00,0,-999,0,0.03
2012-5-24,40,29,18,-100,-100,-100,0,0,100,0.00,40.00,0,-999,0,0.01
2012-5-25,35,29,22,-100,-100,-100,0,0,100,0.00,40.00,0,-999,0,0.01
2012-5-26,41,32,28,-100,-100,-100,0,0,100,0.00,40.00,0,-999,0,0.02
2012-5-27,37,31,27,-100,-100,-100,0,0,100,0.00,40.00,0,-999,0,0.03
2012-5-28,41,33,26,-100,-100,-100,0,0,100,0.00,40.00,0,-999,0,0.01
2012-5-29,49,37,27,-100,-100,-100,0,0,100,0.00,40.00,0,-999,0,0.01
2012-5-30,44,38,35,-100,-100,-100,0,0,100,0.00,40.00,0,-999,0,0.01
2012-5-31,55,43,34,-100,-100,-100,0,0,100,0.00,40.00,0,-999,0,0.01
2012-6-1,53,45,39,-100,-100,-100,0,0,100,0.00,40.00,0,-999,0,0.01
2012-6-2,61,44,35,-100,-100,-100,0,0,100,0.00,40.00,0,-999,0,0.01
2012-6-3,60,48,38,-100,-100,-100,0,0,100,0.00,40.00,0,-999,0,0.01
2012-6-4,67,53,38,-100,-100,-100,0,0,100,0.00,40.00,0,-999,0,0.00
2012-6-5,68,55,38,-100,-100,-100,0,0,100,0.00,40.00,0,-999,0,0.00
2012-6-6,45,35,29,-100,-100,-100,0,0,100,0.00,40.00,0,-999,0,0.00
2012-6-7,56,43,27,-100,-100,-100,0,0,100,0.00,40.00,0,-999,0,0.01
2012-6-8,60,47,32,-100,-100,-100,0,0,100,0.00,40.00,0,-999,0,0.00
2012-6-9,44,37,28,-100,-100,-100,0,0,100,0.00,40.00,0,-999,0,0.01
2012-6-10,36,31,27,-100,-100,-100,0,0,100,0.00,40.00,0,-999,0,0.01
2012-6-11,53,41,31,-100,-100,-100,0,0,100,0.00,40.00,0,-999,0,0.01
2012-6-12,58,44,29,-100,-100,-100,0,0,100,0.00,40.00,0,-999,0,0.00
2012-6-13,57,43,35,-100,-100,-100,0,0,100,0.00,40.00,0,-999,0,0.00
2012-6-14,54,43,31,-100,-100,-100,0,0,100,0.00,40.00,0,-999,0,0.00
2012-6-15,55,42,31,-100,-100,-100,0,0,100,0.00,40.00,0,-999,0,0.00
2012-6-16,60,47,31,-100,-100,-100,0,0,100,0.00,40.00,0,-999,0,0.00
2012-6-17,47,46,44,-100,-100,-100,0,0,100,0.00,40.00,0,-999,0,0.01
2012-6-18,58,48,36,-100,-100,-100,0,0,100,0.00,40.00,0,-999,0,0.00
2012-6-19,47,41,32,-100,-100,-100,0,0,100,0.00,40.00,0,-999,0,0.00
2012-6-20,50,43,32,-100,-100,-100,0,0,100,0.00,40.00,0,-999,0,0.00
2012-6-21,64,48,30,-100,-100,-100,0,0,100,0.00,40.00,0,-999,0,0.00
2012-6-22,69,53,36,-100,-100,-100,0,0,100,0.00,40.00,0,-999,0,0.01
2012-6-23,69,56,40,-100,-100,-100,0,0,100,0.00,40.00,0,-999,0,0.01
2012-6-24,76,61,43,-100,-100,-100,0,0,100,0.00,40.00,0,-999,0,0.00
2012-6-25,73,60,48,-100,-100,-100,0,0,100,0.00,40.00,0,-999,0,0.00
2012-6-26,65,56,46,-100,-100,-100,0,0,100,0.00,40.00,0,-999,0,0.01
2012-6-27,61,50,36,-100,-100,-100,0,0,100,0.00,40.00,0,-999,0,0.00
2012-6-28,70,55,37,-100,-100,-100,0,0,100,0.00,40.00,0,-999,0,0.02
2012-6-29,70,57,40,-100,-100,-100,0,0,100,0.00,40.00,0,-999,0,0.00
2012-6-30,71,59,39,-100,-100,-100,0,0,100,0.00,40.00,0,-999,0,0.01
2012-7-1,75,60,42,-100,-100,-100,0,0,100,0.00,40.00,0,-999,0,0.01
2012-7-2,71,58,43,-100,-100,-100,0,0,100,0.00,40.00,0,-999,0,0.01
2012-7-3,71,58,44,-100,-100,-100,0,0,100,0.00,40.00,0,-999,0,0.01
2012-7-4,70,58,45,-100,-100,-100,0,0,100,0.00,40.00,0,-999,0,0.00
2012-7-5,63,53,44,-100,-100,-100,0,0,100,0.00,40.00,0,-999,0,0.02
2012-7-6,66,52,38,-100,-100,-100,0,0,100,0.00,40.00,0,-999,0,0.04
2012-7-7,67,52,42,-100,-100,-100,0,0,100,0.00,40.00,0,-999,0,0.05
2012-7-8,66,52,41,-100,-100,-100,0,0,100,0.00,40.00,0,-999,0,0.01
2012-7-9,70,56,41,-100,-100,-100,0,0,100,0.00,40.00,0,-999,0,0.02
2012-7-10,71,56,45,-100,-100,-100,0,0,100,0.00,40.00,0,-999,0,0.02
2012-7-11,67,54,44,-100,-100,-100,0,0,100,0.00,40.00,0,-999,0,0.01
2012-7-12,73,56,40,-100,-100,-100,0,0,100,0.00,40.00,0,-999,0,0.02
2012-7-13,73,57,48,-100,-100,-100,0,0,100,0.00,40.00,0,-999,0,0.02
2012-7-14,66,55,49,-100,-100,-100,0,0,100,0.00,40.00,0,-999,0,0.01
2012-7-15,64,53,46,-100,-100,-100,0,0,100,0.00,40.00,0,-999,0,0.03
2012-7-16,62,52,47,-100,-100,-100,0,0,100,0.00,40.00,0,-999,0,0.00
2012-7-17,63,57,49,-100,-100,-100,0,0,100,0.00,40.00,0,-999,0,0.05
2012-7-18,69,56,43,-100,-100,-100,0,0,100,0.00,40.00,0,-999,0,0.00
2012-7-19,74,59,45,-100,-100,-100,0,0,100,0.00,40.00,0,-999,0,0.01
2012-7-20,70,59,52,-100,-100,-100,0,0,100,0.00,40.00,0,-999,0,0.01
2012-7-21,71,60,49,-100,-100,-100,0,0,100,0.00,40.00,0,-999,0,0.01
2012-7-22,69,55,46,-100,-100,-100,0,0,100,0.00,40.00,0,-999,0,0.01
2012-7-23,68,56,44,-100,-100,-100,0,0,100,0.00,40.00,0,-999,0,0.03
2012-7-24,66,56,47,-100,-100,-100,0,0,100,0.00,40.00,0,-999,0,0.00
2012-7-25,68,52,42,-100,-100,-100,0,0,100,0.00,40.00,0,-999,0,0.00
2012-7-26,67,53,40,-100,-100,-100,0,0,100,0.00,40.00,0,-999,0,0.00
2012-7-27,65,51,42,-100,-100,-100,0,0,100,0.00,40.00,0,-999,0,0.01
2012-7-28,67,52,40,-100,-100,-100,0,0,100,0.00,40.00,0,-999,0,0.02
2012-7-29,65,53,43,-100,-100,-100,0,0,100,0.00,40.00,0,-999,0,0.00
2012-7-30,73,55,42,-100,-100,-100,0,0,100,0.00,40.00,0,-999,0,0.03
2012-7-31,72,59,45,-100,-100,-100,0,0,100,0.00,40.00,0,-999,0,0.01
2012-8-1,70,57,47,-100,-100,-100,0,0,100,0.00,40.00,0,-999,0,0.01
2012-8-2,65,56,43,-100,-100,-100,0,0,100,0.00,40.00,0,-999,0,0.01
2012-8-3,55,48,42,-100,-100,-100,0,0,100,0.00,40.00,0,-999,0,0.00
2012-8-4,65,48,31,-100,-100,-100,0,0,100,0.00,40.00,0,-999,0,0.03
2012-8-5,72,56,40,-100,-100,-100,0,0,100,0.00,40.00,0,-999,0,0.00
2012-8-6,65,54,46,-100,-100,-100,0,0,100,0.00,40.00,0,-999,0,0.03
2012-8-7,70,56,42,-100,-100,-100,0,0,100,0.00,40.00,0,-999,0,0.02
2012-8-8,73,61,43,-100,-100,-100,0,0,100,0.00,40.00,0,-999,0,0.00
2012-8-9,68,59,50,-100,-100,-100,0,0,100,0.00,40.00,0,-999,0,0.00
2012-8-10,65,54,45,-100,-100,-100,0,0,100,0.00,40.00,0,-999,0,0.01
2012-8-11,62,52,43,-100,-100,-100,0,0,100,0.00,40.00,0,-999,0,0.01
2012-8-12,67,55,40,-100,-100,-100,0,0,100,0.00,40.00,0,-999,0,0.01
2012-8-13,69,55,42,-100,-100,-100,0,0,100,0.00,40.00,0,-999,0,0.00
2012-8-14,69,56,42,-100,-100,-100,0,0,100,0.00,40.00,0,-999,0,0.00
2012-8-15,58,47,40,-100,-100,-100,0,0,100,0.00,40.00,0,-999,0,0.00
2012-8-16,65,49,39,-100,-100,-100,0,0,100,0.00,40.00,0,-999,0,0.00
2012-8-17,66,52,39,-100,-100,-100,0,0,100,0.00,40.00,0,-999,0,0.01
2012-8-18,65,51,36,-100,-100,-100,0,0,100,0.00,40.00,0,-999,0,0.00
2012-8-19,67,53,37,-100,-100,-100,0,0,100,0.00,40.00,0,-999,0,0.04
2012-8-20,62,53,44,-100,-100,-100,0,0,100,0.00,40.00,0,-999,0,0.00
2012-8-21,67,55,40,-100,-100,-100,0,0,100,0.00,40.00,0,-999,0,0.00
2012-8-22,64,55,48,-100,-100,-100,0,0,100,0.00,40.00,0,-999,0,1.40
2012-8-23,67,54,40,-100,-100,-100,0,0,100,0.00,40.00,0,-999,0,1.40
2012-8-24,63,55,42,-100,-100,-100,0,0,100,0.00,40.00,0,-999,0,0.00
2012-8-25,63,49,34,-100,-100,-100,0,0,100,0.00,40.00,0,-999,0,0.00
2012-8-26,64,47,36,-100,-100,-100,0,0,100,0.00,40.00,0,-999,0,0.01
2012-8-27,69,56,45,-100,-100,-100,0,0,100,0.00,40.00,0,-999,0,0.01
2012-8-28,73,58,44,-100,-100,-100,0,0,100,0.00,40.00,0,-999,0,0.00
2012-8-29,69,60,52,-100,-100,-100,0,0,100,0.00,40.00,0,-999,0,0.00
2012-8-30,64,54,41,-100,-100,-100,0,0,100,0.00,40.00,0,-999,0,0.00
2012-8-31,65,50,42,-100,-100,-100,0,0,100,0.00,40.00,0,-999,0,0.01
2012-9-1,55,48,38,-100,-100,-100,0,0,100,0.00,40.00,0,-999,0,0.02
2012-9-2,56,45,36,-100,-100,-100,0,0,100,0.00,40.00,0,-999,0,0.02
2012-9-3,60,47,36,-100,-100,-100,0,0,100,0.00,40.00,0,-999,0,0.00
2012-9-4,58,48,37,-100,-100,-100,0,0,100,0.00,40.00,0,-999,0,0.00
2012-9-5,60,46,32,-100,-100,-100,0,0,100,0.00,40.00,0,-999,0,0.00
2012-9-6,57,44,35,-100,-100,-100,0,0,100,0.00,40.00,0,-999,0,0.01
2012-9-7,57,43,33,-100,-100,-100,0,0,100,0.00,40.00,0,-999,0,0.01
2012-9-8,64,48,31,-100,-100,-100,0,0,100,0.00,40.00,0,-999,0,0.00
2012-9-9,65,52,37,-100,-100,-100,0,0,100,0.00,40.00,0,-999,0,0.00
2012-9-10,63,54,45,-100,-100,-100,0,0,100,0.00,40.00,0,-999,0,0.00
2012-9-11,54,45,33,-100,-100,-100,0,0,100,0.00,40.00,0,-999,0,0.00
2012-9-12,52,38,28,-100,-100,-100,0,0,100,0.00,40.00,0,-999,0,0.00
2012-9-13,62,46,35,-100,-100,-100,0,0,100,0.00,40.00,0,-999,0,0.00
2012-9-14,63,49,34,-100,-100,-100,0,0,100,0.00,40.00,0,-999,0,0.00
2012-9-15,62,50,36,-100,-100,-100,0,0,100,0.00,40.00,0,-999,0,0.00
2012-9-16,56,42,35,-100,-100,-100,0,0,100,0.00,40.00,0,-999,0,0.00
2012-9-17,54,42,30,-100,-100,-100,0,0,100,0.00,40.00,0,-999,0,0.01
2012-9-18,62,50,40,-100,-100,-100,0,0,100,0.00,40.00,0,-999,0,0.00
2012-9-19,60,49,35,-100,-100,-100,0,0,100,0.00,40.00,0,-999,0,0.00
2012-9-20,60,50,36,-100,-100,-100,0,0,100,0.00,40.00,0,-999,0,0.00
2012-9-21,61,50,37,-100,-100,-100,0,0,100,0.00,40.00,0,-999,0,0.00
2012-9-22,63,48,35,-100,-100,-100,0,0,100,0.00,40.00,0,-999,0,0.00
2012-9-23,62,49,36,-100,-100,-100,0,0,100,0.00,40.00,0,-999,0,0.00
2012-9-24,58,47,37,-100,-100,-100,0,0,100,0.00,40.00,0,-999,0,0.00
2012-9-25,53,46,40,-100,-100,-100,0,0,100,0.00,40.00,0,-999,0,0.00
2012-9-26,55,44,35,-100,-100,-100,0,0,100,0.00,40.00,0,-999,0,0.00
2012-9-27,57,44,34,-100,-100,-100,0,0,100,0.00,40.00,0,-999,0,0.00
2012-9-28,57,43,35,-100,-100,-100,0,0,100,0.00,40.00,0,-999,0,0.00
2012-9-29,49,43,37,-100,-100,-100,0,0,100,0.00,40.00,0,-999,0,0.00
2012-9-30,54,44,35,-100,-100,-100,0,0,100,0.00,40.00,0,-999,0,0.00
2012-10-1,56,44,31,-100,-100,-100,0,0,100,0.00,40.00,0,-999,0,0.00
2012-10-2,54,47,40,-100,-100,-100,0,0,100,0.00,40.00,0,-999,0,0.00
2012-10-3,43,31,19,-100,-100,-100,0,0,100,0.00,40.00,0,-999,0,0.00
2012-10-4,33,25,22,-100,-100,-100,0,0,100,0.00,40.00,0,-999,0,0.00
2012-10-5,30,22,17,-100,-100,-100,0,0,100,0.00,40.00,0,-999,0,0.00
2012-10-6,32,19,2,-100,-100,-100,0,0,100,0.00,40.00,0,-999,0,0.01
2012-10-7,42,31,19,-100,-100,-100,0,0,100,0.00,40.00,0,-999,0,0.01
2012-10-8,43,36,29,-100,-100,-100,0,0,100,0.00,40.00,0,-999,0,0.01
2012-10-9,37,34,31,-100,-100,-100,0,0,100,0.00,40.00,0,-999,0,0.00
2012-10-10,49,39,29,-100,-100,-100,0,0,100,0.00,40.00,0,-999,0,0.00
2012-10-11,50,37,29,-100,-100,-100,0,0,100,0.00,40.00,0,-999,0,0.00
2012-10-12,56,44,35,-100,-100,-100,0,0,100,0.00,40.00,0,-999,0,0.00
2012-10-13,42,36,31,-100,-100,-100,0,0,100,0.00,40.00,0,-999,0,0.00
2012-10-14,46,38,31,-100,-100,-100,0,0,100,0.00,40.00,0,-999,0,0.00
2012-10-15,43,37,36,-100,-100,-100,0,0,100,0.00,40.00,0,-999,0,0.00
2012-10-16,39,34,24,-100,-100,-100,0,0,100,0.00,40.00,0,-999,0,0.02
2012-10-17,30,25,20,-100,-100,-100,0,0,100,0.00,40.00,0,-999,0,0.01
2012-10-18,39,30,21,-100,-100,-100,0,0,100,0.00,40.00,0,-999,0,0.00
2012-10-19,43,36,30,-100,-100,-100,0,0,100,0.00,40.00,0,-999,0,0.00
2012-10-20,40,36,32,-100,-100,-100,0,0,100,0.00,40.00,0,-999,0,0.01
2012-10-21,39,33,29,-100,-100,-100,0,0,100,0.00,40.00,0,-999,0,0.01
2012-10-22,35,31,26,-100,-100,-100,0,0,100,0.00,40.00,0,-999,0,0.01
2012-10-23,30,25,19,-100,-100,-100,0,0,100,0.00,40.00,0,-999,0,0.02
2012-10-24,23,17,10,-100,-100,-100,0,0,100,0.00,40.00,0,-999,0,0.00
2012-10-25,24,15,7,-100,-100,-100,0,0,100,0.00,40.00,0,-999,0,0.01
2012-10-26,22,16,9,-100,-100,-100,0,0,100,0.00,40.00,0,-999,0,0.01
2012-10-27,25,22,17,-100,-100,-100,0,0,100,0.00,40.00,0,-999,0,0.02
2012-10-28,35,30,24,-100,-100,-100,0,0,100,0.00,40.00,0,-999,0,0.02
2012-10-29,37,35,35,-100,-100,-100,0,0,100,0.00,40.00,0,-999,0,0.01
2012-10-30,41,36,31,-100,-100,-100,0,0,100,0.00,40.00,0,-999,0,0.00
2012-10-31,46,36,31,-100,-100,-100,0,0,100,0.00,40.00,0,-999,0,0.00
2012-11-1,44,37,31,-100,-100,-100,0,0,100,0.00,40.00,0,-999,0,0.00
2012-11-2,36,30,26,-100,-100,-100,0,0,100,0.00,40.00,0,-999,0,0.00
2012-11-3,38,30,20,-100,-100,-100,0,0,100,0.00,40.00,0,-999,0,0.00
2012-11-4,38,34,31,-100,-100,-100,0,0,100,0.00,40.00,0,-999,0,0.00
2012-11-5,41,37,34,-100,-100,-100,0,0,100,0.00,40.00,0,-999,0,0.00
2012-11-6,43,36,31,-100,-100,-100,0,0,100,0.00,40.00,0,-999,0,0.00
2012-11-7,45,38,34,-100,-100,-100,0,0,100,0.00,40.00,0,-999,0,0.00
2012-11-8,39,33,26,-100,-100,-100,0,0,100,0.00,40.00,0,-999,0,0.00
2012-11-9,29,24,16,-100,-100,-100,0,0,100,0.00,40.00,0,-999,0,0.00
2012-11-10,17,12,2,-100,-100,-100,0,0,100,0.00,40.00,0,-999,0,0.01
2012-11-11,9,4,1,-100,-100,-100,0,0,100,0.00,40.00,0,-999,0,0.00
2012-11-12,22,14,6,-100,-100,-100,0,0,100,0.00,40.00,0,-999,0,0.01
2012-11-13,25,20,15,-100,-100,-100,0,0,100,0.00,40.00,0,-999,0,0.01
2012-11-14,27,23,16,-100,-100,-100,0,0,100,0.00,40.00,0,-999,0,0.01
2012-11-15,25,21,16,-100,-100,-100,0,0,100,0.00,40.00,0,-999,0,0.00
2012-11-16,37,29,24,-100,-100,-100,0,0,100,0.00,40.00,0,-999,0,0.01
2012-11-17,33,30,27,-100,-100,-100,0,0,100,0.00,40.00,0,-999,0,0.00
2012-11-18,34,30,25,-100,-100,-100,0,0,100,0.00,40.00,0,-999,0,0.00
2012-11-19,34,29,24,-100,-100,-100,0,0,100,0.00,40.00,0,-999,0,0.00
2012-11-20,36,34,32,-100,-100,-100,0,0,100,0.00,40.00,0,-999,0,0.01
2012-11-21,35,32,21,-100,-100,-100,0,0,100,0.00,40.00,0,-999,0,0.01
2012-11-22,20,15,11,-100,-100,-100,0,0,100,0.00,40.00,0,-999,0,0.01
2012-11-23,32,24,10,-100,-100,-100,0,0,100,0.00,40.00,0,-999,0,0.01
2012-11-24,30,28,26,-100,-100,-100,0,0,100,0.00,40.00,0,-999,0,0.01
2012-11-25,28,24,13,-100,-100,-100,0,0,100,0.00,40.00,0,-999,0,0.01
2012-11-26,15,2,-6,-100,-100,-100,0,0,100,0.00,40.00,0,-999,0,0.00
2012-11-27,27,21,16,-100,-100,-100,0,0,100,0.00,40.00,0,-999,0,0.01
2012-11-28,34,27,19,-100,-100,-100,0,0,100,0.00,40.00,0,-999,0,0.01
2012-11-29,31,29,28,-100,-100,-100,0,0,100,0.00,40.00,0,-999,0,0.01
2012-11-30,36,32,29,-100,-100,-100,0,0,100,0.00,40.00,0,-999,0,0.01
2012-12-1,30,29,27,-100,-100,-100,0,0,100,0.00,40.00,0,-999,0,0.02
2012-12-2,35,31,24,-100,-100,-100,0,0,100,0.00,40.00,0,-999,0,0.01
2012-12-3,22,18,15,-100,-100,-100,0,0,100,0.00,40.00,0,-999,0,0.00
2012-12-4,31,24,16,-100,-100,-100,0,0,100,0.00,40.00,0,-999,0,0.02
2012-12-5,34,31,28,-100,-100,-100,0,0,100,0.00,40.00,0,-999,0,0.01
2012-12-6,28,24,19,-100,-100,-100,0,0,100,0.00,40.00,0,-999,0,0.01
2012-12-7,18,15,13,-100,-100,-100,0,0,100,0.00,40.00,0,-999,0,0.01
2012-12-8,15,10,-5,-100,-100,-100,0,0,100,0.00,40.00,0,-999,0,0.01
2012-12-9,11,-4,-17,-100,-100,-100,0,0,100,0.00,40.00,0,-999,0,0.00
2012-12-10,15,11,5,-100,-100,-100,0,0,100,0.00,40.00,0,-999,0,0.01
2012-12-11,22,17,11,-100,-100,-100,0,0,100,0.00,40.00,0,-999,0,0.02
2012-12-12,24,22,18,-100,-100,-100,0,0,100,0.00,40.00,0,-999,0,0.02
2012-12-13,25,22,16,-100,-100,-100,0,0,100,0.00,40.00,0,-999,0,0.01
2012-12-14,28,23,21,-100,-100,-100,0,0,100,0.00,40.00,0,-999,0,0.01
2012-12-15,22,17,11,-100,-100,-100,0,0,100,0.00,40.00,0,-999,0,0.00
2012-12-16,17,11,8,-100,-100,-100,0,0,100,0.00,40.00,0,-999,0,0.01
2012-12-17,25,18,12,-100,-100,-100,0,0,100,0.00,40.00,0,-999,0,0.02
2012-12-18,11,5,-1,-100,-100,-100,0,0,100,0.00,40.00,0,-999,0,0.01
2012-12-19,10,-2,-11,-100,-100,-100,0,0,100,0.00,40.00,0,-999,0,0.00
2012-12-20,19,9,-1,-100,-100,-100,0,0,100,0.00,40.00,0,-999,0,0.01
2012-12-21,29,16,9,-100,-100,-100,0,0,100,0.00,40.00,0,-999,0,0.01
2012-12-22,30,19,10,-100,-100,-100,0,0,100,0.00,40.00,0,-999,0,0.01
2012-12-23,21,16,11,-100,-100,-100,0,0,100,0.00,40.00,0,-999,0,0.01
2012-12-24,25,17,11,-100,-100,-100,0,0,100,0.00,40.00,0,-999,0,0.02
2012-12-25,14,9,5,-100,-100,-100,0,0,100,0.00,40.00,0,-999,0,0.00
2012-12-26,18,12,6,-100,-100,-100,0,0,100,0.00,40.00,0,-999,0,0.01
2012-12-27,20,7,-3,-100,-100,-100,0,0,100,0.00,40.00,0,-999,0,0.00
2012-12-28,15,10,4,-100,-100,-100,0,0,100,0.00,40.00,0,-999,0,0.01
2012-12-29,17,7,1,-100,-100,-100,0,0,100,0.00,40.00,0,-999,0,0.00
2012-12-30,18,8,2,-100,-100,-100,0,0,100,0.00,40.00,0,-999,0,0.01
2012-12-31,20,6,-3,-100,-100,-100,0,0,100,0.00,40.00,0,-999,0,0.00
2013-1-1,19,8,-4,-100,-100,-100,0,0,100,0.00,40.00,0,-999,0,0.01